Time;durP1;ratioP1;P1;durP2;ratioP2;P2;SDS_P1;SDS_P2;PMS_P1;PMS_P2;Temp;Humidity;BMP_temperature;BMP_pressure;BME280_temperature;BME280_humidity;BME280_pressure;Samples;Min_cycle;Max_cycle;Signal;HPM_P1;HPM_P2
2022/10/19 00:00:44;;;;;;;12.75;5.38;;;;;;;;;;5039625;28;20436;-84
2022/10/19 00:03:10;;;;;;;11.10;4.40;;;;;;;;;;5039905;28;20424;-84
2022/10/19 00:05:36;;;;;;;13.35;4.72;;;;;;;;;;5041193;28;20422;-84
2022/10/19 00:08:03;;;;;;;8.60;3.25;;;;;;;;;;5032093;28;20522;-81
2022/10/19 00:10:29;;;;;;;11.60;3.60;;;;;;;;;;5040887;28;20432;-85
2022/10/19 00:12:56;;;;;;;8.37;2.53;;;;;;;;;;5039328;28;20447;-84
2022/10/19 00:15:22;;;;;;;6.72;2.60;;;;;;;;;;5035623;28;20438;-83
2022/10/19 00:17:51;;;;;;;7.68;2.50;;;;;;;;;;5038777;28;20442;-85
2022/10/19 00:20:17;;;;;;;7.43;2.60;;;;;;;;;;5024452;28;20505;-84
2022/10/19 00:22:49;;;;;;;4.90;2.60;;;;;;;;;;5037842;28;20924;-84
2022/10/19 00:25:15;;;;;;;6.25;2.10;;;;;;;;;;5024448;28;20433;-83
2022/10/19 00:27:41;;;;;;;6.13;2.80;;;;;;;;;;5040745;28;20420;-83
2022/10/19 00:30:08;;;;;;;6.88;2.45;;;;;;;;;;5039127;28;20429;-86
2022/10/19 00:32:35;;;;;;;8.48;2.28;;;;;;;;;;5039194;28;20413;-82
2022/10/19 00:35:03;;;;;;;9.98;2.60;;;;;;;;;;5039107;28;20432;-84
2022/10/19 00:37:29;;;;;;;9.57;2.90;;;;;;;;;;5032715;28;20419;-83
2022/10/19 00:39:57;;;;;;;9.27;3.30;;;;;;;;;;5036507;28;20427;-86
2022/10/19 00:42:23;;;;;;;9.67;3.70;;;;;;;;;;5037011;28;20422;-83
2022/10/19 00:45:04;;;;;;;8.82;3.30;;;;;;;;;;5038264;28;20433;-84
2022/10/19 00:47:31;;;;;;;13.75;5.30;;;;;;;;;;5036829;28;20409;-83
2022/10/19 00:49:59;;;;;;;11.60;3.88;;;;;;;;;;5038137;28;20430;-83
2022/10/19 00:52:27;;;;;;;13.52;5.03;;;;;;;;;;5037859;28;20416;-83
2022/10/19 00:54:54;;;;;;;9.77;5.00;;;;;;;;;;5034720;28;20454;-84
2022/10/19 00:57:21;;;;;;;11.07;5.00;;;;;;;;;;5040303;28;20418;-83
2022/10/19 00:59:47;;;;;;;8.70;3.80;;;;;;;;;;5037118;28;20438;-83
2022/10/19 01:02:14;;;;;;;9.52;4.43;;;;;;;;;;5023297;28;20474;-85
2022/10/19 01:04:44;;;;;;;7.82;3.70;;;;;;;;;;5035789;28;20445;-82
2022/10/19 01:07:11;;;;;;;12.15;3.42;;;;;;;;;;5039218;28;20422;-84
2022/10/19 01:09:39;;;;;;;9.52;3.40;;;;;;;;;;5021192;28;20430;-84
2022/10/19 01:12:10;;;;;;;16.23;4.90;;;;;;;;;;5036319;28;20403;-84
2022/10/19 01:14:42;;;;;;;19.48;5.30;;;;;;;;;;5037455;28;20423;-86
2022/10/19 01:17:13;;;;;;;9.50;4.60;;;;;;;;;;5037945;28;20424;-82
2022/10/19 01:19:51;;;;;;;13.40;6.07;;;;;;;;;;5035009;28;20450;-83
2022/10/19 01:22:24;;;;;;;12.77;5.25;;;;;;;;;;5033927;28;20425;-82
2022/10/19 01:24:56;;;;;;;14.30;6.30;;;;;;;;;;5036087;28;20888;-83
2022/10/19 01:27:39;;;;;;;10.73;5.37;;;;;;;;;;5034309;28;20458;-83
2022/10/19 01:30:09;;;;;;;15.98;6.10;;;;;;;;;;5036195;28;20434;-82
2022/10/19 01:32:44;;;;;;;11.20;5.88;;;;;;;;;;5039182;28;20427;-83
2022/10/19 01:35:11;;;;;;;11.98;5.57;;;;;;;;;;5039156;28;20436;-82
2022/10/19 01:37:40;;;;;;;13.55;6.43;;;;;;;;;;5038259;28;20417;-83
2022/10/19 01:40:09;;;;;;;14.50;5.82;;;;;;;;;;5034809;28;20430;-83
2022/10/19 01:42:42;;;;;;;8.15;5.43;;;;;;;;;;5030895;28;20444;-83
2022/10/19 01:45:14;;;;;;;10.60;4.33;;;;;;;;;;5034741;28;20939;-83
2022/10/19 01:47:42;;;;;;;11.97;4.80;;;;;;;;;;5034306;28;20414;-85
2022/10/19 01:50:13;;;;;;;10.30;4.60;;;;;;;;;;5037799;28;20429;-82
2022/10/19 01:52:40;;;;;;;10.82;4.93;;;;;;;;;;5041180;28;20423;-83
2022/10/19 01:55:08;;;;;;;10.43;4.60;;;;;;;;;;5038236;28;20421;-82
2022/10/19 01:57:36;;;;;;;12.88;5.38;;;;;;;;;;5040050;28;20438;-82
2022/10/19 02:00:06;;;;;;;7.20;4.67;;;;;;;;;;5034531;28;20960;-84
2022/10/19 02:02:34;;;;;;;8.98;4.78;;;;;;;;;;5039850;28;20431;-83
2022/10/19 02:05:02;;;;;;;10.30;4.28;;;;;;;;;;5036265;28;20426;-82
2022/10/19 02:07:28;;;;;;;9.40;4.45;;;;;;;;;;5035079;28;20417;-83
2022/10/19 02:09:55;;;;;;;8.90;4.53;;;;;;;;;;5043388;28;20426;-82
2022/10/19 02:12:22;;;;;;;6.40;3.40;;;;;;;;;;5042231;28;20421;-83
2022/10/19 02:14:50;;;;;;;9.35;3.17;;;;;;;;;;5038629;28;20408;-82
2022/10/19 02:17:20;;;;;;;8.10;2.70;;;;;;;;;;5040148;28;20910;-82
2022/10/19 02:19:50;;;;;;;6.45;2.50;;;;;;;;;;5040945;28;20437;-84
2022/10/19 02:22:17;;;;;;;9.90;3.03;;;;;;;;;;5036487;28;20421;-83
2022/10/19 02:24:45;;;;;;;7.25;2.28;;;;;;;;;;5040941;28;20434;-83
2022/10/19 02:27:12;;;;;;;8.00;2.60;;;;;;;;;;5037449;28;20524;-81
2022/10/19 02:29:39;;;;;;;7.60;1.88;;;;;;;;;;5040625;28;20418;-83
2022/10/19 02:32:06;;;;;;;8.68;2.10;;;;;;;;;;5040014;28;20417;-83
2022/10/19 02:34:33;;;;;;;6.70;1.80;;;;;;;;;;5041299;28;20414;-82
2022/10/19 02:37:01;;;;;;;6.40;1.90;;;;;;;;;;5037449;28;20519;-82
2022/10/19 02:39:28;;;;;;;7.83;1.60;;;;;;;;;;5041746;28;21795;-82
2022/10/19 02:41:58;;;;;;;6.97;1.90;;;;;;;;;;5042177;28;20425;-82
2022/10/19 02:44:27;;;;;;;9.60;2.00;;;;;;;;;;5037393;28;20436;-83
2022/10/19 02:46:55;;;;;;;5.07;1.70;;;;;;;;;;5034824;28;20438;-83
2022/10/19 02:49:22;;;;;;;3.47;1.58;;;;;;;;;;5041725;28;20433;-84
2022/10/19 02:51:56;;;;;;;9.68;2.03;;;;;;;;;;5041845;28;20430;-85
2022/10/19 02:54:24;;;;;;;5.60;1.70;;;;;;;;;;5042015;28;20946;-84
2022/10/19 02:56:51;;;;;;;8.48;2.10;;;;;;;;;;5039091;28;20461;-83
2022/10/19 02:59:17;;;;;;;9.63;1.85;;;;;;;;;;5037578;28;20421;-84
2022/10/19 03:01:43;;;;;;;6.18;1.55;;;;;;;;;;5037187;28;20435;-85
2022/10/19 03:04:10;;;;;;;9.48;2.22;;;;;;;;;;5041098;28;20949;-83
2022/10/19 03:06:36;;;;;;;7.57;2.17;;;;;;;;;;5041823;28;20427;-84
2022/10/19 03:09:03;;;;;;;8.55;1.85;;;;;;;;;;5039379;28;20800;-86
2022/10/19 03:11:31;;;;;;;9.48;2.00;;;;;;;;;;5041689;28;20430;-84
2022/10/19 03:13:57;;;;;;;7.13;1.70;;;;;;;;;;5026217;28;20420;-84
2022/10/19 03:16:24;;;;;;;5.37;1.77;;;;;;;;;;5038243;28;20511;-85
2022/10/19 03:18:50;;;;;;;5.05;1.88;;;;;;;;;;5041606;28;20426;-84
2022/10/19 03:21:17;;;;;;;5.67;1.80;;;;;;;;;;5043736;28;20425;-84
2022/10/19 03:23:43;;;;;;;9.38;2.33;;;;;;;;;;5042855;28;20425;-84
2022/10/19 03:26:13;;;;;;;3.30;1.60;;;;;;;;;;5041026;28;20425;-84
2022/10/19 03:28:41;;;;;;;6.95;1.65;;;;;;;;;;5037422;28;20423;-84
2022/10/19 03:31:08;;;;;;;9.80;1.88;;;;;;;;;;5037575;28;20462;-84
2022/10/19 03:33:35;;;;;;;8.80;1.73;;;;;;;;;;5038519;28;20441;-85
2022/10/19 03:36:18;;;;;;;5.77;1.40;;;;;;;;;;5037692;28;20477;-83
2022/10/19 03:38:45;;;;;;;6.88;1.70;;;;;;;;;;5040234;28;20438;-84
2022/10/19 03:41:12;;;;;;;8.98;1.63;;;;;;;;;;5038645;28;20438;-84
2022/10/19 03:43:40;;;;;;;7.10;1.70;;;;;;;;;;5034538;28;20875;-85
2022/10/19 03:46:08;;;;;;;6.30;1.60;;;;;;;;;;5038495;28;20471;-84
2022/10/19 03:48:35;;;;;;;9.82;1.80;;;;;;;;;;5036232;28;20431;-83
2022/10/19 03:51:03;;;;;;;10.40;2.10;;;;;;;;;;5038213;28;20423;-83
2022/10/19 03:53:30;;;;;;;6.80;2.20;;;;;;;;;;5035800;28;20953;-84
2022/10/19 03:56:00;;;;;;;7.28;1.90;;;;;;;;;;5040072;28;20498;-83
2022/10/19 03:58:27;;;;;;;10.02;2.20;;;;;;;;;;5042554;28;20418;-84
2022/10/19 04:00:53;;;;;;;11.90;2.80;;;;;;;;;;5033606;28;20814;-83
2022/10/19 04:03:21;;;;;;;10.77;2.60;;;;;;;;;;5038673;28;20423;-84
2022/10/19 04:05:47;;;;;;;12.38;2.30;;;;;;;;;;5036766;28;20437;-84
2022/10/19 04:08:14;;;;;;;8.50;2.20;;;;;;;;;;5041261;28;20427;-84
2022/10/19 04:10:40;;;;;;;7.87;2.10;;;;;;;;;;5038820;28;20441;-83
2022/10/19 04:13:09;;;;;;;7.80;2.33;;;;;;;;;;5038089;28;20425;-84
2022/10/19 04:15:36;;;;;;;10.32;2.28;;;;;;;;;;5036144;28;20422;-84
2022/10/19 04:18:02;;;;;;;7.57;1.88;;;;;;;;;;5036260;28;20987;-86
2022/10/19 04:20:30;;;;;;;8.25;1.98;;;;;;;;;;5037603;28;20428;-84
2022/10/19 04:22:56;;;;;;;7.30;2.05;;;;;;;;;;5036504;28;20425;-84
2022/10/19 04:25:23;;;;;;;6.00;1.70;;;;;;;;;;5039021;28;20429;-84
2022/10/19 04:27:49;;;;;;;6.72;1.90;;;;;;;;;;5037905;28;20815;-84
2022/10/19 04:30:16;;;;;;;8.47;2.00;;;;;;;;;;5035928;28;20448;-84
2022/10/19 04:32:42;;;;;;;5.20;1.60;;;;;;;;;;5032146;28;20929;-84
2022/10/19 04:35:09;;;;;;;7.70;1.70;;;;;;;;;;5040593;28;20428;-84
2022/10/19 04:37:37;;;;;;;8.90;2.20;;;;;;;;;;5038066;28;20781;-86
2022/10/19 04:40:04;;;;;;;9.07;2.10;;;;;;;;;;5035077;28;20442;-84
2022/10/19 04:42:31;;;;;;;7.22;2.00;;;;;;;;;;5038912;28;20429;-86
2022/10/19 04:44:58;;;;;;;6.15;1.98;;;;;;;;;;5035376;28;20438;-82
2022/10/19 04:47:24;;;;;;;7.45;2.08;;;;;;;;;;5038774;28;20423;-85
2022/10/19 04:49:51;;;;;;;8.80;2.90;;;;;;;;;;5036907;28;20430;-82
2022/10/19 04:52:18;;;;;;;10.73;2.20;;;;;;;;;;5032232;28;20469;-84
2022/10/19 04:54:46;;;;;;;9.07;2.40;;;;;;;;;;5022667;28;20487;-84
2022/10/19 04:57:12;;;;;;;7.53;2.08;;;;;;;;;;5036109;28;20419;-84
2022/10/19 04:59:39;;;;;;;9.80;2.15;;;;;;;;;;5035006;28;20425;-83
2022/10/19 05:02:05;;;;;;;5.88;2.00;;;;;;;;;;5034692;28;20492;-84
2022/10/19 05:04:31;;;;;;;8.68;2.40;;;;;;;;;;5033861;28;20432;-84
2022/10/19 05:06:58;;;;;;;10.38;2.70;;;;;;;;;;5022885;28;20422;-83
2022/10/19 05:09:24;;;;;;;10.38;2.40;;;;;;;;;;5036780;28;20960;-85
2022/10/19 05:11:52;;;;;;;7.57;2.30;;;;;;;;;;5035405;28;20439;-85
2022/10/19 05:14:19;;;;;;;9.65;2.35;;;;;;;;;;5039170;28;20429;-85
2022/10/19 05:16:45;;;;;;;8.23;2.15;;;;;;;;;;5036930;28;20431;-85
2022/10/19 05:19:13;;;;;;;10.43;2.47;;;;;;;;;;5036118;28;20427;-84
2022/10/19 05:21:40;;;;;;;11.00;2.38;;;;;;;;;;5040210;28;20624;-84
2022/10/19 05:24:06;;;;;;;9.40;2.37;;;;;;;;;;5035501;28;20431;-84
2022/10/19 05:26:33;;;;;;;9.48;2.40;;;;;;;;;;5028559;28;20958;-84
2022/10/19 05:29:03;;;;;;;8.23;2.50;;;;;;;;;;5036716;28;20432;-84
2022/10/19 05:31:30;;;;;;;7.47;2.80;;;;;;;;;;5038347;28;20429;-85
2022/10/19 05:33:57;;;;;;;11.60;2.70;;;;;;;;;;5037710;28;20430;-83
2022/10/19 05:36:25;;;;;;;12.65;2.70;;;;;;;;;;5034621;28;20425;-84
2022/10/19 05:38:52;;;;;;;8.85;2.60;;;;;;;;;;5032415;28;20443;-83
2022/10/19 05:41:19;;;;;;;10.70;2.65;;;;;;;;;;5031411;28;20553;-84
2022/10/19 05:43:47;;;;;;;10.45;2.40;;;;;;;;;;5058042;28;20425;-84
2022/10/19 05:46:18;;;;;;;9.82;2.25;;;;;;;;;;5058336;28;20430;-83
2022/10/19 05:48:44;;;;;;;6.90;2.10;;;;;;;;;;5059857;28;20425;-83
2022/10/19 05:51:12;;;;;;;11.98;2.67;;;;;;;;;;5062743;28;20789;-85
2022/10/19 05:53:39;;;;;;;8.27;2.70;;;;;;;;;;5065307;28;20415;-84
2022/10/19 05:56:05;;;;;;;10.40;2.47;;;;;;;;;;5056994;28;20935;-84
2022/10/19 05:58:32;;;;;;;6.35;2.47;;;;;;;;;;5059417;28;20419;-85
2022/10/19 06:00:59;;;;;;;9.82;2.05;;;;;;;;;;5060612;28;20436;-83
2022/10/19 06:03:28;;;;;;;7.82;2.20;;;;;;;;;;5059127;28;20454;-82
2022/10/19 06:05:54;;;;;;;9.37;2.40;;;;;;;;;;5046650;28;20496;-84
2022/10/19 06:08:21;;;;;;;9.55;2.00;;;;;;;;;;5062162;28;20785;-84
2022/10/19 06:10:48;;;;;;;8.70;2.60;;;;;;;;;;5058693;28;20971;-84
2022/10/19 06:13:15;;;;;;;10.50;2.35;;;;;;;;;;5059133;28;20421;-85
2022/10/19 06:15:42;;;;;;;5.32;2.10;;;;;;;;;;5059678;28;20420;-85
2022/10/19 06:18:09;;;;;;;6.70;2.10;;;;;;;;;;5058957;28;21099;-83
2022/10/19 06:20:37;;;;;;;7.15;2.08;;;;;;;;;;5057764;28;20425;-84
2022/10/19 06:23:04;;;;;;;8.32;2.22;;;;;;;;;;5059021;28;20795;-84
2022/10/19 06:25:31;;;;;;;10.25;4.80;;;;;;;;;;5066072;28;20427;-84
2022/10/19 06:27:57;;;;;;;18.60;7.07;;;;;;;;;;5057056;28;20424;-83
2022/10/19 06:30:24;;;;;;;14.85;6.55;;;;;;;;;;5057586;28;20428;-83
2022/10/19 06:32:51;;;;;;;35.97;24.85;;;;;;;;;;5050905;28;20429;-83
2022/10/19 06:35:17;;;;;;;40.60;30.90;;;;;;;;;;5041916;28;20435;-82
2022/10/19 06:37:45;;;;;;;18.15;9.98;;;;;;;;;;5033348;28;20429;-84
2022/10/19 06:40:12;;;;;;;17.15;7.05;;;;;;;;;;5060457;28;20440;-83
2022/10/19 06:42:38;;;;;;;12.98;4.07;;;;;;;;;;5052314;28;20443;-83
2022/10/19 06:45:06;;;;;;;18.57;4.40;;;;;;;;;;5052797;28;20424;-83
2022/10/19 06:47:32;;;;;;;8.60;3.13;;;;;;;;;;5055246;28;20422;-84
2022/10/19 06:49:59;;;;;;;13.77;2.90;;;;;;;;;;5060391;28;20432;-83
2022/10/19 06:52:25;;;;;;;9.13;3.05;;;;;;;;;;5056377;28;20979;-83
2022/10/19 06:54:53;;;;;;;11.20;2.70;;;;;;;;;;5060906;28;20829;-84
2022/10/19 06:57:19;;;;;;;10.45;3.53;;;;;;;;;;5061907;28;20803;-83
2022/10/19 06:59:45;;;;;;;9.20;3.17;;;;;;;;;;5061731;28;20416;-83
2022/10/19 07:02:13;;;;;;;12.35;2.90;;;;;;;;;;5057852;28;20418;-82
2022/10/19 07:04:39;;;;;;;9.70;2.93;;;;;;;;;;5057119;28;20455;-82
2022/10/19 07:07:06;;;;;;;13.35;3.03;;;;;;;;;;5062400;28;20408;-81
2022/10/19 07:09:32;;;;;;;10.35;2.90;;;;;;;;;;5064122;28;20433;-82
2022/10/19 07:12:00;;;;;;;10.85;2.70;;;;;;;;;;5060245;28;20429;-81
2022/10/19 07:14:27;;;;;;;9.48;2.83;;;;;;;;;;5060524;28;20936;-81
2022/10/19 07:16:54;;;;;;;7.85;2.80;;;;;;;;;;5059334;28;20500;-82
2022/10/19 07:19:20;;;;;;;8.67;3.17;;;;;;;;;;5058549;28;20854;-82
2022/10/19 07:21:50;;;;;;;13.15;2.60;;;;;;;;;;5062214;28;20437;-82
2022/10/19 07:24:16;;;;;;;10.40;2.70;;;;;;;;;;5061463;28;20423;-82
2022/10/19 07:26:42;;;;;;;7.88;2.85;;;;;;;;;;5057689;28;20438;-82
2022/10/19 07:29:10;;;;;;;10.20;2.90;;;;;;;;;;5061618;28;20488;-82
2022/10/19 07:31:37;;;;;;;15.65;2.70;;;;;;;;;;5064229;28;20444;-82
2022/10/19 07:34:04;;;;;;;12.77;3.15;;;;;;;;;;5063904;28;20424;-82
2022/10/19 07:36:32;;;;;;;10.90;2.40;;;;;;;;;;5059908;28;20425;-81
2022/10/19 07:38:58;;;;;;;5.63;2.08;;;;;;;;;;5065836;28;20421;-82
2022/10/19 07:41:26;;;;;;;7.60;2.53;;;;;;;;;;5059459;28;20807;-81
2022/10/19 07:43:52;;;;;;;9.88;2.38;;;;;;;;;;5062365;28;20431;-82
2022/10/19 07:46:21;;;;;;;10.68;3.00;;;;;;;;;;5045665;28;20432;-81
2022/10/19 07:48:47;;;;;;;6.03;2.00;;;;;;;;;;5046387;28;20489;-82
2022/10/19 07:51:14;;;;;;;9.40;2.65;;;;;;;;;;5063984;28;20451;-82
2022/10/19 07:53:41;;;;;;;10.43;2.42;;;;;;;;;;5058351;28;20432;-82
2022/10/19 07:56:09;;;;;;;9.20;2.50;;;;;;;;;;5065882;28;20421;-82
2022/10/19 07:58:36;;;;;;;7.72;2.47;;;;;;;;;;5054802;28;20917;-82
2022/10/19 08:01:02;;;;;;;6.70;2.10;;;;;;;;;;5057455;28;20441;-82
2022/10/19 08:03:30;;;;;;;7.78;2.33;;;;;;;;;;5061608;28;20432;-81
2022/10/19 08:05:59;;;;;;;8.63;2.63;;;;;;;;;;5061004;28;20922;-80
2022/10/19 08:08:27;;;;;;;10.20;2.10;;;;;;;;;;5062701;28;20508;-82
2022/10/19 08:10:53;;;;;;;7.03;2.00;;;;;;;;;;5061422;28;20433;-80
2022/10/19 08:13:20;;;;;;;6.77;2.33;;;;;;;;;;5062705;28;20429;-80
2022/10/19 08:15:48;;;;;;;7.95;2.22;;;;;;;;;;5061192;28;20437;-80
2022/10/19 08:18:15;;;;;;;7.60;2.10;;;;;;;;;;5055984;28;20427;-80
2022/10/19 08:20:43;;;;;;;11.95;2.10;;;;;;;;;;5060898;28;20431;-80
2022/10/19 08:23:10;;;;;;;11.43;2.13;;;;;;;;;;5057868;28;20496;-80
2022/10/19 08:25:37;;;;;;;7.88;2.33;;;;;;;;;;5060428;28;20454;-81
2022/10/19 08:28:03;;;;;;;8.23;2.20;;;;;;;;;;5045027;28;20924;-81
2022/10/19 08:30:30;;;;;;;10.95;2.60;;;;;;;;;;5036878;28;20439;-81
2022/10/19 08:32:56;;;;;;;11.88;2.30;;;;;;;;;;5035131;28;20426;-80
2022/10/19 08:35:23;;;;;;;6.47;2.10;;;;;;;;;;5038964;28;20435;-80
2022/10/19 08:37:51;;;;;;;9.53;2.60;;;;;;;;;;5032021;28;20423;-81
2022/10/19 08:40:19;;;;;;;8.30;2.40;;;;;;;;;;5033939;28;20442;-81
2022/10/19 08:42:50;;;;;;;10.00;2.30;;;;;;;;;;5023085;28;20855;-81
2022/10/19 08:45:29;;;;;;;8.93;2.13;;;;;;;;;;5039697;28;20445;-83
2022/10/19 08:47:59;;;;;;;8.75;1.95;;;;;;;;;;5044959;28;20428;-83
2022/10/19 08:50:27;;;;;;;9.05;2.40;;;;;;;;;;5057546;28;20437;-83
2022/10/19 08:52:59;;;;;;;7.97;2.03;;;;;;;;;;5054101;28;20497;-84
2022/10/19 08:55:29;;;;;;;11.27;1.63;;;;;;;;;;5060383;28;20435;-82
2022/10/19 08:58:00;;;;;;;12.20;2.53;;;;;;;;;;5053511;28;20454;-84
2022/10/19 09:00:32;;;;;;;5.68;2.40;;;;;;;;;;5057654;28;20934;-82
2022/10/19 09:03:04;;;;;;;10.18;2.50;;;;;;;;;;5054745;28;20436;-82
2022/10/19 09:05:35;;;;;;;8.07;1.90;;;;;;;;;;5059505;28;20511;-83
2022/10/19 09:08:04;;;;;;;7.80;1.80;;;;;;;;;;5059289;28;20424;-82
2022/10/19 09:10:33;;;;;;;6.40;2.00;;;;;;;;;;5051277;28;21035;-82
2022/10/19 09:13:01;;;;;;;7.30;1.97;;;;;;;;;;5058648;28;20422;-82
2022/10/19 09:15:29;;;;;;;9.32;1.73;;;;;;;;;;5055972;28;20416;-83
2022/10/19 09:17:55;;;;;;;9.65;2.40;;;;;;;;;;5060075;28;20438;-83
2022/10/19 09:20:23;;;;;;;10.13;2.20;;;;;;;;;;5061826;28;20438;-82
2022/10/19 09:22:55;;;;;;;7.88;1.80;;;;;;;;;;5061693;28;20934;-83
2022/10/19 09:25:25;;;;;;;10.15;2.40;;;;;;;;;;5065993;28;20417;-83
2022/10/19 09:27:53;;;;;;;10.45;2.53;;;;;;;;;;5059279;28;20430;-83
2022/10/19 09:30:21;;;;;;;6.87;1.80;;;;;;;;;;5062918;28;20442;-82
2022/10/19 09:32:50;;;;;;;6.20;1.90;;;;;;;;;;5061467;28;20514;-82
2022/10/19 09:35:22;;;;;;;11.07;2.30;;;;;;;;;;5064829;28;20430;-82
2022/10/19 09:37:50;;;;;;;6.43;1.97;;;;;;;;;;5060777;28;20425;-82
2022/10/19 09:40:18;;;;;;;4.53;1.58;;;;;;;;;;5062284;28;20413;-83
2022/10/19 09:42:49;;;;;;;6.07;1.80;;;;;;;;;;5062807;28;20413;-81
2022/10/19 09:45:29;;;;;;;5.40;2.00;;;;;;;;;;5062456;28;20417;-83
2022/10/19 09:47:56;;;;;;;8.77;2.20;;;;;;;;;;5061305;28;20419;-82
2022/10/19 09:50:23;;;;;;;8.65;1.80;;;;;;;;;;5056690;28;20438;-82
2022/10/19 09:52:50;;;;;;;6.82;1.65;;;;;;;;;;5062182;28;20426;-83
2022/10/19 09:55:22;;;;;;;11.20;2.17;;;;;;;;;;5060783;28;20478;-82
2022/10/19 09:57:51;;;;;;;8.13;2.20;;;;;;;;;;5061096;28;20431;-80
2022/10/19 10:00:20;;;;;;;8.93;2.20;;;;;;;;;;5055458;28;20443;-81
2022/10/19 10:02:50;;;;;;;5.82;1.80;;;;;;;;;;5052914;28;20453;-81
2022/10/19 10:05:17;;;;;;;10.77;2.03;;;;;;;;;;5061591;28;20436;-80
2022/10/19 10:07:44;;;;;;;7.32;1.90;;;;;;;;;;5060887;28;20437;-81
2022/10/19 10:10:11;;;;;;;7.32;2.00;;;;;;;;;;5059861;28;20814;-79
2022/10/19 10:12:39;;;;;;;8.45;2.10;;;;;;;;;;5057431;28;20413;-79
2022/10/19 10:15:08;;;;;;;5.57;2.20;;;;;;;;;;5059111;28;20428;-80
2022/10/19 10:17:36;;;;;;;5.47;2.05;;;;;;;;;;5060507;28;20415;-81
2022/10/19 10:20:05;;;;;;;8.50;2.20;;;;;;;;;;5060820;28;20490;-81
2022/10/19 10:22:32;;;;;;;7.95;2.13;;;;;;;;;;5057487;28;20976;-81
2022/10/19 10:24:59;;;;;;;12.00;2.20;;;;;;;;;;5058247;28;20425;-81
2022/10/19 10:27:29;;;;;;;6.72;1.95;;;;;;;;;;5062631;28;20426;-81
2022/10/19 10:29:56;;;;;;;5.97;2.00;;;;;;;;;;5058634;28;20432;-80
2022/10/19 10:32:24;;;;;;;7.45;2.15;;;;;;;;;;5051010;28;20429;-81
2022/10/19 10:34:56;;;;;;;6.47;2.25;;;;;;;;;;5056600;28;20998;-82
2022/10/19 10:37:24;;;;;;;7.53;2.40;;;;;;;;;;5058034;28;20432;-82
2022/10/19 10:39:51;;;;;;;7.00;2.15;;;;;;;;;;5052645;28;20431;-81
2022/10/19 10:42:19;;;;;;;5.97;1.77;;;;;;;;;;5054240;28;20420;-81
2022/10/19 10:44:47;;;;;;;4.88;2.10;;;;;;;;;;5058373;28;20429;-81
2022/10/19 10:47:16;;;;;;;7.85;1.90;;;;;;;;;;5051271;28;20425;-81
2022/10/19 10:49:52;;;;;;;5.18;1.80;;;;;;;;;;5058280;28;21021;-81
2022/10/19 10:52:19;;;;;;;6.18;1.70;;;;;;;;;;5053495;28;20412;-81
2022/10/19 10:54:57;;;;;;;10.45;2.72;;;;;;;;;;5058022;28;20510;-81
2022/10/19 10:57:25;;;;;;;7.30;2.13;;;;;;;;;;5058367;28;20420;-81
2022/10/19 10:59:54;;;;;;;6.53;1.80;;;;;;;;;;5059437;28;20910;-81
2022/10/19 11:02:30;;;;;;;9.45;2.45;;;;;;;;;;5056617;28;20422;-81
2022/10/19 11:05:01;;;;;;;7.03;1.80;;;;;;;;;;5057247;28;20789;-81
2022/10/19 11:07:29;;;;;;;5.50;2.10;;;;;;;;;;5062536;28;20788;-81
2022/10/19 11:09:57;;;;;;;8.00;2.37;;;;;;;;;;5061172;28;20423;-81
2022/10/19 11:12:32;;;;;;;8.95;2.35;;;;;;;;;;5056191;28;20421;-81
2022/10/19 11:15:02;;;;;;;6.33;2.03;;;;;;;;;;5057450;28;20839;-81
2022/10/19 11:17:31;;;;;;;5.90;1.70;;;;;;;;;;5059207;28;20808;-81
2022/10/19 11:19:59;;;;;;;6.03;2.40;;;;;;;;;;5055037;28;20820;-81
2022/10/19 11:22:28;;;;;;;5.20;2.03;;;;;;;;;;5058396;28;20422;-81
2022/10/19 11:25:00;;;;;;;11.10;2.60;;;;;;;;;;5057808;28;20437;-81
2022/10/19 11:27:34;;;;;;;7.82;1.60;;;;;;;;;;5051735;28;20433;-82
2022/10/19 11:30:07;;;;;;;6.60;2.00;;;;;;;;;;5057062;28;21029;-81
2022/10/19 11:32:38;;;;;;;9.57;2.10;;;;;;;;;;5055941;28;20429;-80
2022/10/19 11:35:16;;;;;;;7.43;1.90;;;;;;;;;;5058993;28;20425;-81
2022/10/19 11:37:49;;;;;;;7.63;2.40;;;;;;;;;;5059380;28;20417;-81
2022/10/19 11:40:19;;;;;;;7.83;2.20;;;;;;;;;;5055848;28;20432;-81
2022/10/19 11:42:51;;;;;;;7.90;1.90;;;;;;;;;;5054897;28;20424;-81
2022/10/19 11:45:22;;;;;;;9.55;2.30;;;;;;;;;;5038792;28;20425;-82
2022/10/19 11:47:58;;;;;;;6.97;2.30;;;;;;;;;;5053964;28;20429;-82
2022/10/19 11:50:36;;;;;;;7.22;1.83;;;;;;;;;;5057848;28;20490;-81
2022/10/19 11:53:07;;;;;;;12.93;2.17;;;;;;;;;;5057825;28;20456;-81
2022/10/19 11:55:37;;;;;;;7.47;1.85;;;;;;;;;;5060303;28;20440;-82
2022/10/19 11:58:07;;;;;;;4.82;1.90;;;;;;;;;;5059913;28;20412;-81
2022/10/19 12:00:39;;;;;;;7.05;1.95;;;;;;;;;;5051774;28;20937;-81
2022/10/19 12:03:18;;;;;;;6.85;2.08;;;;;;;;;;5056807;28;20436;-80
2022/10/19 12:05:51;;;;;;;6.68;1.80;;;;;;;;;;5061439;28;21046;-81
2022/10/19 12:08:26;;;;;;;4.85;1.80;;;;;;;;;;5056554;28;20423;-81
2022/10/19 12:10:56;;;;;;;9.10;2.08;;;;;;;;;;5055010;28;20441;-81
2022/10/19 12:13:26;;;;;;;6.82;2.20;;;;;;;;;;5053665;28;20428;-81
2022/10/19 12:15:53;;;;;;;4.20;1.80;;;;;;;;;;5058279;28;20433;-81
2022/10/19 12:18:26;;;;;;;5.40;2.00;;;;;;;;;;5054421;28;20795;-80
2022/10/19 12:20:56;;;;;;;8.48;1.98;;;;;;;;;;5042603;28;20497;-81
2022/10/19 12:23:28;;;;;;;6.40;2.03;;;;;;;;;;5057265;28;20429;-81
2022/10/19 12:25:56;;;;;;;10.07;2.42;;;;;;;;;;5058877;28;20969;-81
2022/10/19 12:28:24;;;;;;;6.43;2.15;;;;;;;;;;5058478;28;20425;-81
2022/10/19 12:30:51;;;;;;;6.80;2.30;;;;;;;;;;5055225;28;20489;-81
2022/10/19 12:33:20;;;;;;;9.00;2.45;;;;;;;;;;5053701;28;21096;-81
2022/10/19 12:36:00;;;;;;;5.80;2.53;;;;;;;;;;5056463;28;20437;-82
2022/10/19 12:38:29;;;;;;;8.20;2.47;;;;;;;;;;5056150;28;20457;-81
2022/10/19 12:41:01;;;;;;;6.78;2.30;;;;;;;;;;5063407;28;20772;-81
2022/10/19 12:43:32;;;;;;;7.35;2.33;;;;;;;;;;5056692;28;20506;-81
2022/10/19 12:46:02;;;;;;;6.90;2.50;;;;;;;;;;5057958;28;20440;-81
2022/10/19 12:48:29;;;;;;;9.02;2.70;;;;;;;;;;5056691;28;21051;-81
2022/10/19 12:51:13;;;;;;;7.25;2.58;;;;;;;;;;5057863;28;22544;-81
2022/10/19 12:53:43;;;;;;;4.60;2.80;;;;;;;;;;5053857;28;20860;-80
2022/10/19 12:56:12;;;;;;;8.10;2.60;;;;;;;;;;5057756;28;20427;-80
2022/10/19 12:58:39;;;;;;;9.23;2.80;;;;;;;;;;5054688;28;20429;-81
2022/10/19 13:01:07;;;;;;;7.88;2.50;;;;;;;;;;5058795;28;20425;-81
2022/10/19 13:03:35;;;;;;;9.15;2.72;;;;;;;;;;5043125;28;20422;-80
2022/10/19 13:06:02;;;;;;;6.28;2.30;;;;;;;;;;5058138;28;20510;-81
2022/10/19 13:08:30;;;;;;;6.00;2.45;;;;;;;;;;5056814;28;20430;-81
2022/10/19 13:11:05;;;;;;;7.17;2.40;;;;;;;;;;5046864;28;20483;-81
2022/10/19 13:13:55;;;;;;;9.30;2.70;;;;;;;;;;5057439;28;20928;-81
2022/10/19 13:16:32;;;;;;;6.97;2.60;;;;;;;;;;5048066;28;20826;-81
2022/10/19 13:19:03;;;;;;;7.63;2.30;;;;;;;;;;5055875;28;20759;-82
2022/10/19 13:21:48;;;;;;;8.40;2.60;;;;;;;;;;5059200;28;20434;-82
2022/10/19 13:24:35;;;;;;;6.47;2.10;;;;;;;;;;5057127;28;20424;-81
2022/10/19 13:27:21;;;;;;;9.77;2.95;;;;;;;;;;5056775;28;20426;-82
2022/10/19 13:29:49;;;;;;;5.50;2.10;;;;;;;;;;5054941;28;20443;-81
2022/10/19 13:32:34;;;;;;;6.28;1.90;;;;;;;;;;5057535;28;20923;-81
2022/10/19 13:35:15;;;;;;;5.88;2.30;;;;;;;;;;5056368;28;20434;-83
2022/10/19 13:37:42;;;;;;;6.28;2.13;;;;;;;;;;5056351;28;20429;-83
2022/10/19 13:40:17;;;;;;;6.80;2.23;;;;;;;;;;5059951;28;20440;-83
2022/10/19 13:42:44;;;;;;;4.47;1.90;;;;;;;;;;5055722;28;20403;-83
2022/10/19 13:45:22;;;;;;;5.22;1.55;;;;;;;;;;5054325;28;20432;-83
2022/10/19 13:47:52;;;;;;;4.45;2.00;;;;;;;;;;5056967;28;20427;-82
2022/10/19 13:50:23;;;;;;;8.10;2.20;;;;;;;;;;5059654;28;20918;-82
2022/10/19 13:52:59;;;;;;;5.93;1.80;;;;;;;;;;5054217;28;20434;-82
2022/10/19 13:55:43;;;;;;;3.90;1.70;;;;;;;;;;5060512;28;20506;-83
2022/10/19 13:58:29;;;;;;;5.47;1.70;;;;;;;;;;5055763;28;20432;-83
2022/10/19 14:01:04;;;;;;;6.60;1.80;;;;;;;;;;5052643;28;20438;-83
2022/10/19 14:03:38;;;;;;;5.63;2.03;;;;;;;;;;5055914;28;20430;-83
2022/10/19 14:06:13;;;;;;;4.55;1.85;;;;;;;;;;5063323;28;20417;-83
2022/10/19 14:09:03;;;;;;;6.50;2.30;;;;;;;;;;5060990;28;20430;-83
2022/10/19 14:11:31;;;;;;;4.63;2.13;;;;;;;;;;5059820;28;20449;-83
2022/10/19 14:14:12;;;;;;;6.50;1.80;;;;;;;;;;5061658;28;20421;-83
2022/10/19 14:16:46;;;;;;;4.90;1.70;;;;;;;;;;5063772;28;20409;-83
2022/10/19 14:19:13;;;;;;;7.85;2.20;;;;;;;;;;5060177;28;20428;-82
2022/10/19 14:21:40;;;;;;;8.80;2.43;;;;;;;;;;5062403;28;20421;-83
2022/10/19 14:24:19;;;;;;;7.82;1.90;;;;;;;;;;5062747;28;20434;-83
2022/10/19 14:26:46;;;;;;;4.93;1.90;;;;;;;;;;5059741;28;20437;-82
2022/10/19 14:29:12;;;;;;;6.25;2.15;;;;;;;;;;5063332;28;20459;-82
2022/10/19 14:31:43;;;;;;;5.88;2.00;;;;;;;;;;5060971;28;20425;-82
2022/10/19 14:34:13;;;;;;;7.65;2.17;;;;;;;;;;5059714;28;20428;-82
2022/10/19 14:36:43;;;;;;;6.10;2.40;;;;;;;;;;5060352;28;20444;-82
2022/10/19 14:39:21;;;;;;;7.60;2.30;;;;;;;;;;5046647;28;20423;-81
2022/10/19 14:41:47;;;;;;;5.38;2.28;;;;;;;;;;5021599;28;20422;-81
2022/10/19 14:44:32;;;;;;;9.70;2.40;;;;;;;;;;5041185;28;20434;-82
2022/10/19 14:47:00;;;;;;;6.70;2.00;;;;;;;;;;5041237;28;20434;-82
2022/10/19 14:49:28;;;;;;;7.88;1.65;;;;;;;;;;5039838;28;20438;-83
2022/10/19 14:51:56;;;;;;;4.75;1.67;;;;;;;;;;5036890;28;20423;-82